sensor_id;sensor_type;location;lat;lon;timestamp;pressure;altitude;pressure_sealevel;temperature;humidity
22181;BME280;11256;50.830;12.834;2023-05-15T00:04:35;97199.88;;;13.64;57.71
22181;BME280;11256;50.830;12.834;2023-05-15T00:09:35;97189.63;;;13.61;58.14
22181;BME280;11256;50.830;12.834;2023-05-15T00:14:35;97188.53;;;13.62;58.00
22181;BME280;11256;50.830;12.834;2023-05-15T00:19:36;97185.78;;;13.62;57.96
22181;BME280;11256;50.830;12.834;2023-05-15T00:24:36;97188.66;;;13.57;58.21
22181;BME280;11256;50.830;12.834;2023-05-15T00:29:36;97170.50;;;13.52;58.04
22181;BME280;11256;50.830;12.834;2023-05-15T00:34:37;97178.19;;;13.50;58.37
22181;BME280;11256;50.830;12.834;2023-05-15T00:39:37;97177.38;;;13.50;58.38
22181;BME280;11256;50.830;12.834;2023-05-15T00:44:39;97167.03;;;13.30;57.44
22181;BME280;11256;50.830;12.834;2023-05-15T00:49:40;97172.06;;;13.23;57.91
22181;BME280;11256;50.830;12.834;2023-05-15T00:54:41;97166.63;;;13.23;58.39
22181;BME280;11256;50.830;12.834;2023-05-15T00:59:44;97159.09;;;13.20;58.27
22181;BME280;11256;50.830;12.834;2023-05-15T01:04:44;97157.00;;;13.17;58.56
22181;BME280;11256;50.830;12.834;2023-05-15T01:09:46;97146.56;;;13.10;58.70
22181;BME280;11256;50.830;12.834;2023-05-15T01:14:48;97148.09;;;13.03;58.18
22181;BME280;11256;50.830;12.834;2023-05-15T01:19:49;97135.75;;;12.97;58.68
22181;BME280;11256;50.830;12.834;2023-05-15T01:30:28;97129.94;;;12.76;58.69
22181;BME280;11256;50.830;12.834;2023-05-15T01:41:00;97132.59;;;12.68;58.31
22181;BME280;11256;50.830;12.834;2023-05-15T01:46:02;97129.97;;;12.63;58.79
22181;BME280;11256;50.830;12.834;2023-05-15T01:51:04;97127.38;;;12.58;58.84
22181;BME280;11256;50.830;12.834;2023-05-15T01:56:07;97108.72;;;12.43;58.37
22181;BME280;11256;50.830;12.834;2023-05-15T02:01:09;97121.38;;;12.47;58.87
22181;BME280;11256;50.830;12.834;2023-05-15T02:06:10;97114.75;;;12.40;59.07
22181;BME280;11256;50.830;12.834;2023-05-15T02:11:12;97102.28;;;12.39;59.01
22181;BME280;11256;50.830;12.834;2023-05-15T02:16:12;97109.72;;;12.33;58.58
22181;BME280;11256;50.830;12.834;2023-05-15T02:21:14;97094.91;;;12.17;58.36
22181;BME280;11256;50.830;12.834;2023-05-15T02:26:30;97108.38;;;12.09;60.39
22181;BME280;11256;50.830;12.834;2023-05-15T02:36:40;97093.91;;;12.00;58.87
22181;BME280;11256;50.830;12.834;2023-05-15T02:41:43;97096.91;;;11.98;58.69
22181;BME280;11256;50.830;12.834;2023-05-15T02:46:44;97082.25;;;11.86;58.85
22181;BME280;11256;50.830;12.834;2023-05-15T02:51:46;97087.09;;;11.75;58.69
22181;BME280;11256;50.830;12.834;2023-05-15T02:56:46;97060.44;;;11.64;58.30
22181;BME280;11256;50.830;12.834;2023-05-15T03:01:47;97075.03;;;11.68;58.94
22181;BME280;11256;50.830;12.834;2023-05-15T03:06:47;97066.69;;;11.64;58.81
22181;BME280;11256;50.830;12.834;2023-05-15T03:11:48;97065.09;;;11.63;59.31
22181;BME280;11256;50.830;12.834;2023-05-15T03:16:48;97051.06;;;11.56;58.72
22181;BME280;11256;50.830;12.834;2023-05-15T03:21:48;97067.16;;;11.53;58.88
22181;BME280;11256;50.830;12.834;2023-05-15T03:26:49;97059.97;;;11.62;59.95
22181;BME280;11256;50.830;12.834;2023-05-15T03:31:49;97057.16;;;11.67;60.06
22181;BME280;11256;50.830;12.834;2023-05-15T03:36:49;97052.50;;;11.67;60.31
22181;BME280;11256;50.830;12.834;2023-05-15T03:41:50;97039.84;;;11.63;60.18
22181;BME280;11256;50.830;12.834;2023-05-15T03:46:50;97052.69;;;11.71;60.33
22181;BME280;11256;50.830;12.834;2023-05-15T03:51:51;97050.50;;;11.73;60.52
22181;BME280;11256;50.830;12.834;2023-05-15T03:56:51;97045.06;;;11.73;60.75
22181;BME280;11256;50.830;12.834;2023-05-15T04:01:52;97037.03;;;11.68;60.39
22181;BME280;11256;50.830;12.834;2023-05-15T04:06:52;97045.56;;;11.75;60.63
22181;BME280;11256;50.830;12.834;2023-05-15T04:11:52;97042.25;;;11.78;60.42
22181;BME280;11256;50.830;12.834;2023-05-15T04:16:53;97033.81;;;11.79;60.09
22181;BME280;11256;50.830;12.834;2023-05-15T04:21:53;97037.00;;;11.81;60.38
22181;BME280;11256;50.830;12.834;2023-05-15T04:26:53;97033.38;;;11.86;60.20
22181;BME280;11256;50.830;12.834;2023-05-15T04:31:53;97031.59;;;11.81;60.39
22181;BME280;11256;50.830;12.834;2023-05-15T04:36:54;97039.22;;;11.93;61.08
22181;BME280;11256;50.830;12.834;2023-05-15T04:41:54;97029.97;;;11.94;60.99
22181;BME280;11256;50.830;12.834;2023-05-15T04:46:55;97029.53;;;12.00;61.31
22181;BME280;11256;50.830;12.834;2023-05-15T04:51:55;97019.28;;;11.97;61.27
22181;BME280;11256;50.830;12.834;2023-05-15T04:56:56;97026.88;;;12.09;60.97
22181;BME280;11256;50.830;12.834;2023-05-15T05:01:57;97013.53;;;12.12;60.87
22181;BME280;11256;50.830;12.834;2023-05-15T05:06:57;97026.84;;;12.22;60.88
22181;BME280;11256;50.830;12.834;2023-05-15T05:11:58;97027.25;;;12.29;60.68
22181;BME280;11256;50.830;12.834;2023-05-15T05:16:58;97028.44;;;12.37;60.64
22181;BME280;11256;50.830;12.834;2023-05-15T05:21:59;97019.03;;;12.43;60.76
22181;BME280;11256;50.830;12.834;2023-05-15T05:27:04;96998.41;;;12.42;60.99
22181;BME280;11256;50.830;12.834;2023-05-15T05:32:05;96998.16;;;12.52;61.78
22181;BME280;11256;50.830;12.834;2023-05-15T05:37:06;97009.78;;;12.66;61.66
22181;BME280;11256;50.830;12.834;2023-05-15T05:42:06;97008.28;;;12.82;62.14
22181;BME280;11256;50.830;12.834;2023-05-15T05:47:06;97009.63;;;12.93;61.95
22181;BME280;11256;50.830;12.834;2023-05-15T05:52:07;97012.75;;;13.08;62.55
22181;BME280;11256;50.830;12.834;2023-05-15T05:57:08;97005.63;;;13.21;62.47
22181;BME280;11256;50.830;12.834;2023-05-15T06:02:09;96995.44;;;13.35;62.67
22181;BME280;11256;50.830;12.834;2023-05-15T06:07:09;97003.72;;;13.69;63.15
22181;BME280;11256;50.830;12.834;2023-05-15T06:12:10;97011.63;;;14.13;62.33
22181;BME280;11256;50.830;12.834;2023-05-15T06:17:10;96999.97;;;14.46;62.02
22181;BME280;11256;50.830;12.834;2023-05-15T06:22:11;97001.56;;;14.64;60.23
22181;BME280;11256;50.830;12.834;2023-05-15T06:27:11;96999.09;;;14.80;60.82
22181;BME280;11256;50.830;12.834;2023-05-15T06:32:11;96979.53;;;14.86;61.67
22181;BME280;11256;50.830;12.834;2023-05-15T06:37:12;96994.88;;;15.08;60.32
22181;BME280;11256;50.830;12.834;2023-05-15T06:42:12;96999.63;;;15.28;59.91
22181;BME280;11256;50.830;12.834;2023-05-15T06:47:15;96995.06;;;15.49;59.44
22181;BME280;11256;50.830;12.834;2023-05-15T06:52:16;96990.94;;;15.72;59.89
22181;BME280;11256;50.830;12.834;2023-05-15T06:57:17;96986.94;;;15.90;60.78
22181;BME280;11256;50.830;12.834;2023-05-15T07:02:17;96969.72;;;15.98;60.76
22181;BME280;11256;50.830;12.834;2023-05-15T07:07:17;96983.56;;;16.34;59.99
22181;BME280;11256;50.830;12.834;2023-05-15T07:12:18;96981.16;;;16.73;60.57
22181;BME280;11256;50.830;12.834;2023-05-15T07:17:18;96974.44;;;17.27;60.70
22181;BME280;11256;50.830;12.834;2023-05-15T07:22:18;96977.81;;;17.57;59.88
22181;BME280;11256;50.830;12.834;2023-05-15T07:27:19;96980.19;;;17.82;59.17
22181;BME280;11256;50.830;12.834;2023-05-15T07:32:19;96977.53;;;18.10;59.29
22181;BME280;11256;50.830;12.834;2023-05-15T07:37:19;96966.97;;;18.24;58.79
22181;BME280;11256;50.830;12.834;2023-05-15T07:42:20;96968.97;;;18.63;59.49
22181;BME280;11256;50.830;12.834;2023-05-15T07:47:20;96966.66;;;19.08;61.03
22181;BME280;11256;50.830;12.834;2023-05-15T07:52:20;96969.47;;;20.20;60.72
22181;BME280;11256;50.830;12.834;2023-05-15T07:57:21;96968.94;;;21.51;59.51
22181;BME280;11256;50.830;12.834;2023-05-15T08:02:21;96954.69;;;22.79;58.43
22181;BME280;11256;50.830;12.834;2023-05-15T08:07:21;96953.13;;;23.54;53.68
22181;BME280;11256;50.830;12.834;2023-05-15T08:12:22;96952.50;;;24.25;52.15
22181;BME280;11256;50.830;12.834;2023-05-15T08:17:23;96954.00;;;24.77;49.39
22181;BME280;11256;50.830;12.834;2023-05-15T08:22:23;96946.63;;;25.23;47.06
22181;BME280;11256;50.830;12.834;2023-05-15T08:27:24;96958.56;;;25.34;45.38
22181;BME280;11256;50.830;12.834;2023-05-15T08:32:24;96943.72;;;26.84;46.33
22181;BME280;11256;50.830;12.834;2023-05-15T08:37:26;96952.88;;;26.88;44.65
22181;BME280;11256;50.830;12.834;2023-05-15T08:42:47;96951.13;;;27.22;42.70
22181;BME280;11256;50.830;12.834;2023-05-15T08:47:49;96947.31;;;26.88;43.26
22181;BME280;11256;50.830;12.834;2023-05-15T08:52:50;96941.03;;;26.70;43.71
22181;BME280;11256;50.830;12.834;2023-05-15T08:57:52;96939.38;;;26.83;42.03
22181;BME280;11256;50.830;12.834;2023-05-15T09:02:53;96945.44;;;26.64;41.61
22181;BME280;11256;50.830;12.834;2023-05-15T09:07:54;96926.78;;;26.57;42.40
22181;BME280;11256;50.830;12.834;2023-05-15T09:12:55;96925.16;;;26.63;41.92
22181;BME280;11256;50.830;12.834;2023-05-15T09:17:56;96932.03;;;25.82;41.67
22181;BME280;11256;50.830;12.834;2023-05-15T09:22:58;96920.41;;;26.57;41.89
22181;BME280;11256;50.830;12.834;2023-05-15T09:27:59;96928.44;;;26.13;41.93
22181;BME280;11256;50.830;12.834;2023-05-15T09:33:00;96903.84;;;25.59;41.36
22181;BME280;11256;50.830;12.834;2023-05-15T09:38:10;96914.09;;;25.13;41.93
22181;BME280;11256;50.830;12.834;2023-05-15T09:43:11;96915.63;;;24.86;42.46
22181;BME280;11256;50.830;12.834;2023-05-15T09:48:11;96917.69;;;24.24;42.77
22181;BME280;11256;50.830;12.834;2023-05-15T09:53:12;96909.81;;;23.72;43.21
22181;BME280;11256;50.830;12.834;2023-05-15T09:58:15;96916.06;;;23.19;44.14
22181;BME280;11256;50.830;12.834;2023-05-15T10:03:17;96909.31;;;22.80;44.76
22181;BME280;11256;50.830;12.834;2023-05-15T10:08:27;96916.28;;;22.37;45.26
22181;BME280;11256;50.830;12.834;2023-05-15T10:13:30;96917.75;;;22.02;45.63
22181;BME280;11256;50.830;12.834;2023-05-15T10:18:32;96915.81;;;21.76;47.06
22181;BME280;11256;50.830;12.834;2023-05-15T10:23:35;96905.13;;;21.52;46.77
22181;BME280;11256;50.830;12.834;2023-05-15T10:28:37;96905.19;;;21.30;47.25
22181;BME280;11256;50.830;12.834;2023-05-15T10:33:39;96900.59;;;21.15;47.23
22181;BME280;11256;50.830;12.834;2023-05-15T10:38:39;96899.59;;;21.04;47.63
22181;BME280;11256;50.830;12.834;2023-05-15T10:43:41;96894.69;;;20.94;47.93
22181;BME280;11256;50.830;12.834;2023-05-15T10:48:41;96891.53;;;20.92;48.04
22181;BME280;11256;50.830;12.834;2023-05-15T10:53:43;96878.88;;;20.91;48.07
22181;BME280;11256;50.830;12.834;2023-05-15T10:58:51;96869.47;;;20.92;47.65
22181;BME280;11256;50.830;12.834;2023-05-15T11:04:07;96876.69;;;21.00;48.04
22181;BME280;11256;50.830;12.834;2023-05-15T11:14:21;96859.66;;;21.17;47.44
22181;BME280;11256;50.830;12.834;2023-05-15T11:19:22;96859.38;;;21.48;47.42
22181;BME280;11256;50.830;12.834;2023-05-15T11:24:30;96856.66;;;21.74;47.01
22181;BME280;11256;50.830;12.834;2023-05-15T11:29:31;96852.41;;;22.09;46.62
22181;BME280;11256;50.830;12.834;2023-05-15T11:34:40;96837.94;;;22.19;45.09
22181;BME280;11256;50.830;12.834;2023-05-15T11:39:40;96840.91;;;22.37;45.56
22181;BME280;11256;50.830;12.834;2023-05-15T11:44:41;96852.13;;;22.47;45.11
22181;BME280;11256;50.830;12.834;2023-05-15T11:49:41;96857.47;;;22.37;43.96
22181;BME280;11256;50.830;12.834;2023-05-15T11:54:41;96851.34;;;22.21;44.41
22181;BME280;11256;50.830;12.834;2023-05-15T11:59:43;96868.38;;;22.23;44.23
22181;BME280;11256;50.830;12.834;2023-05-15T12:04:43;96872.50;;;22.10;44.61
22181;BME280;11256;50.830;12.834;2023-05-15T12:09:49;96879.00;;;21.95;43.59
22181;BME280;11256;50.830;12.834;2023-05-15T12:14:49;96882.00;;;21.83;44.11
22181;BME280;11256;50.830;12.834;2023-05-15T12:19:50;96874.88;;;21.82;43.93
22181;BME280;11256;50.830;12.834;2023-05-15T12:24:51;96864.97;;;21.77;44.23
22181;BME280;11256;50.830;12.834;2023-05-15T12:29:52;96863.84;;;21.82;43.60
22181;BME280;11256;50.830;12.834;2023-05-15T12:34:53;96849.41;;;21.66;42.75
22181;BME280;11256;50.830;12.834;2023-05-15T12:39:55;96857.22;;;21.60;43.31
22181;BME280;11256;50.830;12.834;2023-05-15T12:44:56;96864.94;;;21.51;43.31
22181;BME280;11256;50.830;12.834;2023-05-15T12:49:56;96861.06;;;21.56;43.38
22181;BME280;11256;50.830;12.834;2023-05-15T12:54:59;96856.88;;;21.39;43.37
22181;BME280;11256;50.830;12.834;2023-05-15T12:59:59;96842.56;;;21.30;43.88
22181;BME280;11256;50.830;12.834;2023-05-15T13:05:01;96860.00;;;21.38;44.04
22181;BME280;11256;50.830;12.834;2023-05-15T13:10:06;96860.00;;;21.38;43.87
22181;BME280;11256;50.830;12.834;2023-05-15T13:15:21;96835.03;;;21.27;44.48
22181;BME280;11256;50.830;12.834;2023-05-15T13:20:22;96840.28;;;21.36;44.35
22181;BME280;11256;50.830;12.834;2023-05-15T13:25:23;96815.00;;;21.30;44.55
22181;BME280;11256;50.830;12.834;2023-05-15T13:30:23;96808.16;;;21.47;45.06
22181;BME280;11256;50.830;12.834;2023-05-15T13:35:24;96823.63;;;21.81;44.48
22181;BME280;11256;50.830;12.834;2023-05-15T13:40:24;96814.06;;;22.01;45.10
22181;BME280;11256;50.830;12.834;2023-05-15T13:45:25;96820.72;;;22.33;44.97
22181;BME280;11256;50.830;12.834;2023-05-15T13:50:25;96828.28;;;22.36;43.47
22181;BME280;11256;50.830;12.834;2023-05-15T13:55:26;96825.84;;;22.31;43.45
22181;BME280;11256;50.830;12.834;2023-05-15T14:00:26;96814.69;;;22.20;43.45
22181;BME280;11256;50.830;12.834;2023-05-15T14:05:26;96818.16;;;22.14;44.05
22181;BME280;11256;50.830;12.834;2023-05-15T14:10:27;96805.81;;;22.04;44.19
22181;BME280;11256;50.830;12.834;2023-05-15T14:15:27;96816.13;;;22.11;44.46
22181;BME280;11256;50.830;12.834;2023-05-15T14:20:28;96810.97;;;22.06;44.56
22181;BME280;11256;50.830;12.834;2023-05-15T14:25:28;96828.78;;;22.12;44.78
22181;BME280;11256;50.830;12.834;2023-05-15T14:30:28;96816.94;;;22.11;44.26
22181;BME280;11256;50.830;12.834;2023-05-15T14:35:29;96820.84;;;22.07;44.68
22181;BME280;11256;50.830;12.834;2023-05-15T14:40:29;96816.94;;;22.11;44.65
22181;BME280;11256;50.830;12.834;2023-05-15T14:45:30;96822.53;;;22.18;44.84
22181;BME280;11256;50.830;12.834;2023-05-15T14:50:30;96807.53;;;22.16;42.30
22181;BME280;11256;50.830;12.834;2023-05-15T14:55:30;96797.31;;;22.20;43.56
22181;BME280;11256;50.830;12.834;2023-05-15T15:00:31;96787.88;;;22.21;42.56
22181;BME280;11256;50.830;12.834;2023-05-15T15:05:31;96806.91;;;22.33;41.11
22181;BME280;11256;50.830;12.834;2023-05-15T15:10:33;96810.16;;;22.38;40.51
22181;BME280;11256;50.830;12.834;2023-05-15T15:15:33;96808.03;;;22.58;40.79
22181;BME280;11256;50.830;12.834;2023-05-15T15:20:34;96833.25;;;22.56;40.11
22181;BME280;11256;50.830;12.834;2023-05-15T15:25:34;96832.78;;;22.47;40.82
22181;BME280;11256;50.830;12.834;2023-05-15T15:30:34;96845.69;;;22.40;40.80
22181;BME280;11256;50.830;12.834;2023-05-15T15:35:35;96836.75;;;22.17;40.80
22181;BME280;11256;50.830;12.834;2023-05-15T15:40:35;96832.56;;;22.00;40.68
22181;BME280;11256;50.830;12.834;2023-05-15T15:45:35;96832.38;;;21.86;40.67
22181;BME280;11256;50.830;12.834;2023-05-15T15:50:36;96829.81;;;21.71;40.81
22181;BME280;11256;50.830;12.834;2023-05-15T15:55:36;96824.91;;;21.61;41.79
22181;BME280;11256;50.830;12.834;2023-05-15T16:00:36;96842.28;;;21.65;42.35
22181;BME280;11256;50.830;12.834;2023-05-15T16:05:37;96841.50;;;21.64;41.57
22181;BME280;11256;50.830;12.834;2023-05-15T16:10:37;96840.66;;;21.60;41.28
22181;BME280;11256;50.830;12.834;2023-05-15T16:15:37;96854.00;;;21.58;41.26
22181;BME280;11256;50.830;12.834;2023-05-15T16:20:38;96851.84;;;21.45;41.29
22181;BME280;11256;50.830;12.834;2023-05-15T16:25:38;96851.47;;;21.46;41.90
22181;BME280;11256;50.830;12.834;2023-05-15T16:30:38;96854.66;;;21.48;42.33
22181;BME280;11256;50.830;12.834;2023-05-15T16:35:39;96863.31;;;21.47;42.80
22181;BME280;11256;50.830;12.834;2023-05-15T16:40:40;96862.56;;;21.50;42.60
22181;BME280;11256;50.830;12.834;2023-05-15T16:45:40;96867.81;;;21.58;42.19
22181;BME280;11256;50.830;12.834;2023-05-15T16:50:41;96867.34;;;21.53;41.81
22181;BME280;11256;50.830;12.834;2023-05-15T16:55:41;96881.00;;;21.46;42.11
22181;BME280;11256;50.830;12.834;2023-05-15T17:00:42;96887.56;;;21.38;42.33
22181;BME280;11256;50.830;12.834;2023-05-15T17:05:43;96897.75;;;21.34;42.55
22181;BME280;11256;50.830;12.834;2023-05-15T17:10:43;96894.56;;;21.32;42.55
22181;BME280;11256;50.830;12.834;2023-05-15T17:15:44;96894.94;;;21.30;42.65
22181;BME280;11256;50.830;12.834;2023-05-15T17:20:46;96895.13;;;21.18;42.91
22181;BME280;11256;50.830;12.834;2023-05-15T17:25:46;96900.88;;;21.10;42.84
22181;BME280;11256;50.830;12.834;2023-05-15T17:30:47;96908.16;;;20.99;42.42
22181;BME280;11256;50.830;12.834;2023-05-15T17:35:47;96891.94;;;20.75;42.57
22181;BME280;11256;50.830;12.834;2023-05-15T17:40:48;96899.19;;;20.64;42.75
22181;BME280;11256;50.830;12.834;2023-05-15T17:45:48;96916.03;;;20.59;43.13
22181;BME280;11256;50.830;12.834;2023-05-15T17:50:48;96911.75;;;20.42;43.05
22181;BME280;11256;50.830;12.834;2023-05-15T17:55:49;96910.69;;;20.28;43.46
22181;BME280;11256;50.830;12.834;2023-05-15T18:00:50;96927.91;;;20.25;43.55
22181;BME280;11256;50.830;12.834;2023-05-15T18:05:50;96932.09;;;20.19;43.64
22181;BME280;11256;50.830;12.834;2023-05-15T18:10:51;96933.88;;;20.11;43.44
22181;BME280;11256;50.830;12.834;2023-05-15T18:15:52;96943.06;;;20.00;43.90
22181;BME280;11256;50.830;12.834;2023-05-15T18:20:52;96951.50;;;19.91;44.10
22181;BME280;11256;50.830;12.834;2023-05-15T18:25:53;96957.63;;;19.85;43.93
22181;BME280;11256;50.830;12.834;2023-05-15T18:30:53;96963.75;;;19.78;44.09
22181;BME280;11256;50.830;12.834;2023-05-15T18:35:53;96949.06;;;19.55;43.97
22181;BME280;11256;50.830;12.834;2023-05-15T18:40:54;96957.84;;;19.61;44.26
22181;BME280;11256;50.830;12.834;2023-05-15T18:45:54;96957.50;;;19.47;44.26
22181;BME280;11256;50.830;12.834;2023-05-15T18:50:55;96968.75;;;19.42;44.49
22181;BME280;11256;50.830;12.834;2023-05-15T18:55:55;96972.84;;;19.32;44.44
22181;BME280;11256;50.830;12.834;2023-05-15T19:00:55;96981.25;;;19.24;44.62
22181;BME280;11256;50.830;12.834;2023-05-15T19:05:56;96983.31;;;19.15;44.90
22181;BME280;11256;50.830;12.834;2023-05-15T19:10:57;96988.53;;;19.04;44.75
22181;BME280;11256;50.830;12.834;2023-05-15T19:15:57;96995.44;;;18.98;44.73
22181;BME280;11256;50.830;12.834;2023-05-15T19:20:58;97007.03;;;18.92;44.89
22181;BME280;11256;50.830;12.834;2023-05-15T19:25:59;97003.63;;;18.83;44.82
22181;BME280;11256;50.830;12.834;2023-05-15T19:31:00;97020.09;;;18.83;45.10
22181;BME280;11256;50.830;12.834;2023-05-15T19:36:00;97016.72;;;18.74;45.09
22181;BME280;11256;50.830;12.834;2023-05-15T19:41:01;97007.91;;;18.68;45.06
22181;BME280;11256;50.830;12.834;2023-05-15T19:46:01;97020.28;;;18.62;45.18
22181;BME280;11256;50.830;12.834;2023-05-15T19:51:02;97015.63;;;18.51;45.43
22181;BME280;11256;50.830;12.834;2023-05-15T19:56:03;97025.25;;;18.45;45.63
22181;BME280;11256;50.830;12.834;2023-05-15T20:01:03;97031.22;;;18.35;45.99
22181;BME280;11256;50.830;12.834;2023-05-15T20:06:04;97049.03;;;18.29;46.25
22181;BME280;11256;50.830;12.834;2023-05-15T20:11:04;97049.28;;;18.24;46.09
22181;BME280;11256;50.830;12.834;2023-05-15T20:16:05;97049.53;;;18.07;46.60
22181;BME280;11256;50.830;12.834;2023-05-15T20:21:10;97046.22;;;18.01;46.54
22181;BME280;11256;50.830;12.834;2023-05-15T20:26:10;97040.97;;;17.96;46.73
22181;BME280;11256;50.830;12.834;2023-05-15T20:31:10;97059.00;;;17.97;46.97
22181;BME280;11256;50.830;12.834;2023-05-15T20:36:11;97048.63;;;17.79;47.02
22181;BME280;11256;50.830;12.834;2023-05-15T20:41:11;97052.72;;;17.73;47.36
22181;BME280;11256;50.830;12.834;2023-05-15T20:46:11;97043.78;;;17.64;47.33
22181;BME280;11256;50.830;12.834;2023-05-15T20:51:12;97062.88;;;17.60;47.44
22181;BME280;11256;50.830;12.834;2023-05-15T20:56:12;97058.41;;;17.56;47.59
22181;BME280;11256;50.830;12.834;2023-05-15T21:01:14;97051.06;;;17.48;47.71
22181;BME280;11256;50.830;12.834;2023-05-15T21:06:15;97057.66;;;17.35;47.88
22181;BME280;11256;50.830;12.834;2023-05-15T21:11:15;97051.94;;;17.28;48.01
22181;BME280;11256;50.830;12.834;2023-05-15T21:16:15;97061.03;;;17.20;47.98
22181;BME280;11256;50.830;12.834;2023-05-15T21:21:16;97057.59;;;17.11;48.00
22181;BME280;11256;50.830;12.834;2023-05-15T21:26:16;97061.59;;;17.13;48.74
22181;BME280;11256;50.830;12.834;2023-05-15T21:31:16;97054.38;;;17.09;48.67
22181;BME280;11256;50.830;12.834;2023-05-15T21:36:18;97062.81;;;17.04;48.99
22181;BME280;11256;50.830;12.834;2023-05-15T21:41:18;97058.00;;;17.01;49.06
22181;BME280;11256;50.830;12.834;2023-05-15T21:46:18;97054.44;;;16.88;49.00
22181;BME280;11256;50.830;12.834;2023-05-15T21:51:19;97056.72;;;16.86;49.08
22181;BME280;11256;50.830;12.834;2023-05-15T21:56:19;97049.88;;;16.72;49.33
22181;BME280;11256;50.830;12.834;2023-05-15T22:01:20;97072.72;;;16.76;49.51
22181;BME280;11256;50.830;12.834;2023-05-15T22:06:20;97080.34;;;16.70;49.51
22181;BME280;11256;50.830;12.834;2023-05-15T22:11:21;97082.16;;;16.66;49.48
22181;BME280;11256;50.830;12.834;2023-05-15T22:16:21;97087.00;;;16.61;49.67
22181;BME280;11256;50.830;12.834;2023-05-15T22:21:22;97078.94;;;16.44;49.82
22181;BME280;11256;50.830;12.834;2023-05-15T22:26:22;97076.38;;;16.39;49.84
22181;BME280;11256;50.830;12.834;2023-05-15T22:31:22;97095.53;;;16.39;49.88
22181;BME280;11256;50.830;12.834;2023-05-15T22:36:23;97089.44;;;16.33;50.02
22181;BME280;11256;50.830;12.834;2023-05-15T22:41:23;97078.28;;;16.18;50.24
22181;BME280;11256;50.830;12.834;2023-05-15T22:46:23;97081.84;;;16.10;50.21
22181;BME280;11256;50.830;12.834;2023-05-15T22:51:24;97091.19;;;16.09;50.54
22181;BME280;11256;50.830;12.834;2023-05-15T22:56:24;97099.56;;;16.04;50.57
22181;BME280;11256;50.830;12.834;2023-05-15T23:01:25;97098.16;;;15.98;50.64
22181;BME280;11256;50.830;12.834;2023-05-15T23:06:25;97114.75;;;15.93;50.72
22181;BME280;11256;50.830;12.834;2023-05-15T23:11:25;97113.31;;;15.87;50.86
22181;BME280;11256;50.830;12.834;2023-05-15T23:16:27;97115.91;;;15.83;51.03
22181;BME280;11256;50.830;12.834;2023-05-15T23:21:27;97115.28;;;15.78;50.88
22181;BME280;11256;50.830;12.834;2023-05-15T23:26:28;97112.25;;;15.71;51.10
22181;BME280;11256;50.830;12.834;2023-05-15T23:31:28;97105.56;;;15.60;51.22
22181;BME280;11256;50.830;12.834;2023-05-15T23:36:28;97114.25;;;15.45;51.78
22181;BME280;11256;50.830;12.834;2023-05-15T23:41:29;97114.75;;;15.47;51.82
22181;BME280;11256;50.830;12.834;2023-05-15T23:46:29;97116.88;;;15.33;51.93
22181;BME280;11256;50.830;12.834;2023-05-15T23:51:29;97133.38;;;15.45;51.95
22181;BME280;11256;50.830;12.834;2023-05-15T23:56:30;97119.28;;;15.34;51.80
